Time;durP1;ratioP1;P1;durP2;ratioP2;P2;SDS_P1;SDS_P2;PMS_P1;PMS_P2;Temp;Humidity;BMP_temperature;BMP_pressure;BME280_temperature;BME280_humidity;BME280_pressure;Samples;Min_cycle;Max_cycle;Signal;HPM_P1;HPM_P2
2023/10/11 00:00:34;;;;;;;11.47;5.00;;;15.60;57.80;;;;;;5114595;28;20487;-70
2023/10/11 00:03:06;;;;;;;15.50;5.17;;;15.50;57.70;;;;;;5114865;28;20448;-70
2023/10/11 00:05:39;;;;;;;8.43;5.07;;;15.60;57.80;;;;;;5114714;28;20962;-70
2023/10/11 00:08:08;;;;;;;8.13;4.10;;;15.70;57.80;;;;;;5115104;28;20428;-70
2023/10/11 00:10:42;;;;;;;12.57;6.00;;;15.80;56.10;;;;;;5114658;28;20531;-70
2023/10/11 00:13:11;;;;;;;10.53;4.63;;;15.80;56.00;;;;;;5114357;28;20459;-70
2023/10/11 00:15:37;;;;;;;10.00;4.60;;;15.70;57.20;;;;;;5114382;28;20445;-70
2023/10/11 00:18:06;;;;;;;10.90;4.60;;;15.80;56.90;;;;;;5114597;28;20527;-70
2023/10/11 00:20:47;;;;;;;12.17;5.13;;;15.80;56.40;;;;;;5114239;28;20472;-70
2023/10/11 00:23:16;;;;;;;9.17;4.03;;;15.80;57.40;;;;;;5114117;28;21009;-70
2023/10/11 00:25:44;;;;;;;9.80;5.80;;;15.80;55.70;;;;;;5113820;28;20444;-70
2023/10/11 00:28:13;;;;;;;10.13;5.17;;;15.80;55.50;;;;;;5114136;28;20479;-70
2023/10/11 00:30:41;;;;;;;12.13;4.67;;;15.80;56.60;;;;;;5114201;28;20445;-70
2023/10/11 00:33:09;;;;;;;11.73;5.17;;;15.80;56.50;;;;;;5114084;28;20480;-70
2023/10/11 00:35:44;;;;;;;13.60;5.40;;;15.80;56.60;;;;;;5114109;28;20452;-70
2023/10/11 00:38:14;;;;;;;12.30;5.27;;;15.90;55.60;;;;;;5114134;28;20462;-70
2023/10/11 00:40:43;;;;;;;8.90;5.27;;;15.90;55.60;;;;;;5113934;28;20476;-70
2023/10/11 00:43:16;;;;;;;12.70;6.90;;;16.00;54.70;;;;;;5113978;28;20448;-70
2023/10/11 00:45:44;;;;;;;12.67;4.87;;;16.10;52.80;;;;;;5114320;28;20838;-70
2023/10/11 00:48:15;;;;;;;9.90;5.00;;;16.30;50.90;;;;;;5114345;28;20448;-70
2023/10/11 00:50:49;;;;;;;13.50;4.47;;;16.30;49.80;;;;;;5114235;28;20444;-70
2023/10/11 00:53:18;;;;;;;12.67;5.20;;;16.40;49.80;;;;;;5114210;28;20547;-70
2023/10/11 00:55:45;;;;;;;13.80;5.10;;;16.50;50.00;;;;;;5113897;28;20819;-70
2023/10/11 00:58:17;;;;;;;14.87;5.93;;;16.60;50.10;;;;;;5114023;28;20959;-70
2023/10/11 01:00:44;;;;;;;11.63;6.17;;;16.70;50.10;;;;;;5113878;28;20548;-70
2023/10/11 01:03:13;;;;;;;10.73;4.40;;;16.60;50.10;;;;;;5113794;28;20527;-70
2023/10/11 01:05:48;;;;;;;12.80;4.50;;;16.60;50.10;;;;;;5113588;28;20448;-70
2023/10/11 01:08:15;;;;;;;15.13;5.53;;;16.50;50.80;;;;;;5113893;28;20452;-70
2023/10/11 01:10:45;;;;;;;12.60;5.80;;;16.50;50.00;;;;;;5113616;28;20468;-70
2023/10/11 01:13:14;;;;;;;17.27;5.30;;;16.40;49.90;;;;;;5113325;28;20480;-70
2023/10/11 01:15:42;;;;;;;10.93;5.10;;;16.40;49.80;;;;;;5113500;28;20444;-70
2023/10/11 01:18:12;;;;;;;10.37;4.80;;;16.30;50.80;;;;;;5113779;28;20929;-70
2023/10/11 01:20:40;;;;;;;10.67;5.33;;;16.30;49.80;;;;;;5113381;28;20476;-70
2023/10/11 01:23:07;;;;;;;13.83;5.43;;;16.40;49.90;;;;;;5113546;28;20449;-70
2023/10/11 01:25:34;;;;;;;13.63;5.20;;;16.40;49.90;;;;;;5113292;28;20441;-70
2023/10/11 01:28:02;;;;;;;17.10;6.23;;;16.40;49.90;;;;;;5113555;28;20453;-70
2023/10/11 01:30:29;;;;;;;14.00;6.00;;;16.30;50.10;;;;;;5113494;28;20469;-70
2023/10/11 01:32:56;;;;;;;13.03;5.93;;;16.30;50.80;;;;;;5113430;28;20523;-70
2023/10/11 01:35:23;;;;;;;11.13;6.23;;;16.40;50.30;;;;;;5112845;28;20863;-70
2023/10/11 01:37:55;;;;;;;11.57;4.80;;;16.40;51.10;;;;;;5113056;28;20480;-70
2023/10/11 01:40:24;;;;;;;10.40;5.23;;;16.50;50.00;;;;;;5113418;28;20460;-70
2023/10/11 01:42:51;;;;;;;13.83;6.93;;;16.50;53.50;;;;;;5113145;28;20816;-70
2023/10/11 01:45:19;;;;;;;14.40;5.57;;;16.50;50.00;;;;;;5113531;28;21000;-70
2023/10/11 01:47:47;;;;;;;16.27;5.13;;;16.60;50.20;;;;;;5113056;28;20483;-70
2023/10/11 01:50:16;;;;;;;13.23;5.63;;;16.60;50.10;;;;;;5112888;28;20451;-70
2023/10/11 01:52:43;;;;;;;14.00;6.03;;;16.60;50.50;;;;;;5112877;28;20445;-70
2023/10/11 01:55:13;;;;;;;11.43;4.97;;;16.70;50.20;;;;;;5113119;28;20535;-70
2023/10/11 01:57:42;;;;;;;14.40;6.37;;;16.80;50.30;;;;;;5113122;28;20450;-70
2023/10/11 02:00:13;;;;;;;11.57;6.00;;;16.70;53.70;;;;;;5112845;28;20472;-70
2023/10/11 02:02:45;;;;;;;18.00;5.13;;;16.70;50.20;;;;;;5113056;28;20539;-70
2023/10/11 02:05:13;;;;;;;11.33;5.67;;;16.80;50.20;;;;;;5112821;28;20444;-70
2023/10/11 02:07:40;;;;;;;12.20;4.90;;;16.90;50.30;;;;;;5112916;28;20448;-70
2023/10/11 02:10:11;;;;;;;11.70;5.30;;;17.00;50.50;;;;;;5113243;28;20444;-70
2023/10/11 02:12:44;;;;;;;12.90;6.10;;;17.00;50.50;;;;;;5112847;28;20468;-70
2023/10/11 02:15:21;;;;;;;12.57;6.17;;;17.00;50.40;;;;;;5113241;28;20862;-70
2023/10/11 02:17:51;;;;;;;13.40;6.23;;;16.90;50.30;;;;;;5112782;28;20920;-70
2023/10/11 02:20:22;;;;;;;10.73;5.30;;;16.90;50.40;;;;;;5112476;28;20477;-70
2023/10/11 02:22:51;;;;;;;11.13;6.30;;;16.90;50.30;;;;;;5112985;28;20460;-70
2023/10/11 02:25:19;;;;;;;10.00;5.57;;;16.80;50.20;;;;;;5112872;28;20539;-70
2023/10/11 02:27:50;;;;;;;12.87;5.87;;;16.90;50.30;;;;;;5112641;28;20456;-70
2023/10/11 02:30:20;;;;;;;10.90;4.87;;;16.80;50.30;;;;;;5112663;28;20480;-70
2023/10/11 02:32:49;;;;;;;13.27;6.07;;;16.70;50.20;;;;;;5112351;28;20453;-70
2023/10/11 02:56:05;;;;;;;12.20;5.10;;;16.00;55.40;;;;;;5115133;28;20524;-70
2023/10/11 02:59:33;;;;;;;11.07;5.70;;;16.00;56.40;;;;;;5108524;28;20826;-70
2023/10/11 03:25:53;;;;;;;9.73;4.93;;;15.90;53.70;;;;;;5092515;28;20445;-70
2023/10/11 03:45:20;;;;;;;16.80;5.73;;;15.40;57.60;;;;;;5098919;28;20474;-70
2023/10/11 04:05:47;;;;;;;13.63;5.33;;;15.60;53.30;;;;;;4972493;28;20492;-70
2023/10/11 04:12:00;;;;;;;13.70;5.60;;;15.60;51.00;;;;;;4966961;28;20459;-70
2023/10/11 04:34:48;;;;;;;12.73;5.47;;;15.20;57.30;;;;;;5035797;28;20443;-70
2023/10/11 04:51:45;;;;;;;11.10;6.27;;;14.80;57.00;;;;;;5111297;28;20456;-70
2023/10/11 05:04:56;;;;;;;11.33;6.17;;;14.40;62.70;;;;;;5111203;28;20462;-70
2023/10/11 05:18:06;;;;;;;10.33;5.37;;;14.40;60.90;;;;;;5111073;28;20539;-70
2023/10/11 05:52:29;;;;;;;10.10;5.27;;;14.50;57.10;;;;;;5096159;28;20474;-70
2023/10/11 06:15:16;;;;;;;12.10;5.10;;;14.80;57.00;;;;;;4985925;28;20490;-70
2023/10/11 06:26:28;;;;;;;18.37;5.00;;;14.90;57.10;;;;;;5018430;28;20456;-70
2023/10/11 06:29:38;;;;;;;17.33;6.00;;;14.80;57.00;;;;;;5026695;28;20460;-70
2023/10/11 06:49:19;;;;;;;16.90;5.30;;;15.60;49.10;;;;;;5075843;28;20439;-70
2023/10/11 07:22:51;;;;;;;15.43;4.77;;;16.60;50.10;;;;;;4999320;28;21023;-70
2023/10/11 07:26:56;;;;;;;18.10;5.30;;;16.90;50.20;;;;;;5011397;28;20941;-70
2023/10/11 08:24:24;;;;;;;13.03;4.37;;;20.20;25.10;;;;;;5089688;28;20884;-77
2023/10/11 08:36:39;;;;;;;9.97;4.40;;;20.70;23.90;;;;;;5084601;28;20936;-76
2023/10/11 08:39:06;;;;;;;11.13;3.80;;;20.80;20.30;;;;;;5094803;28;20528;-78
2023/10/11 08:41:34;;;;;;;12.50;5.60;;;20.90;22.80;;;;;;5093638;28;20453;-78
2023/10/11 08:44:08;;;;;;;12.40;5.00;;;21.10;20.50;;;;;;5094544;28;20207;-77
2023/10/11 08:46:39;;;;;;;12.10;4.73;;;21.10;20.50;;;;;;5093388;28;20982;-76
2023/10/11 08:49:09;;;;;;;15.23;5.85;;;21.30;20.60;;;;;;5091883;28;20453;-75
2023/10/11 08:51:41;;;;;;;9.57;5.80;;;21.60;20.90;;;;;;5093236;28;20180;-75
2023/10/11 08:54:11;;;;;;;11.53;4.40;;;21.80;21.70;;;;;;5079666;28;20454;-76
2023/10/11 08:56:39;;;;;;;10.83;5.13;;;22.00;21.10;;;;;;5093761;28;20838;-76
2023/10/11 08:59:14;;;;;;;12.37;5.80;;;22.30;19.20;;;;;;5093492;28;20476;-76
2023/10/11 09:01:45;;;;;;;13.70;5.10;;;22.50;17.50;;;;;;5093776;28;20516;-76
2023/10/11 09:04:13;;;;;;;16.15;5.85;;;22.80;14.20;;;;;;5092641;28;20811;-76
2023/10/11 09:06:44;;;;;;;10.97;4.93;;;22.90;14.40;;;;;;5092450;28;20195;-75
2023/10/11 09:09:32;;;;;;;10.77;4.37;;;23.00;14.40;;;;;;5092698;28;20807;-75
2023/10/11 09:12:20;;;;;;;9.47;4.50;;;23.30;14.60;;;;;;5092153;28;20468;-76
2023/10/11 09:14:58;;;;;;;16.30;6.40;;;23.50;11.00;;;;;;5091829;28;20453;-75
2023/10/11 09:17:26;;;;;;;10.43;4.83;;;23.70;11.80;;;;;;5092344;28;20472;-76
2023/10/11 09:19:56;;;;;;;15.40;5.07;;;24.10;7.60;;;;;;5091977;28;20533;-76
2023/10/11 09:22:23;;;;;;;13.37;4.63;;;24.20;7.60;;;;;;5092268;28;20818;-76
2023/10/11 09:25:05;;;;;;;13.80;4.93;;;24.30;7.60;;;;;;5092671;28;20875;-76
2023/10/11 09:27:48;;;;;;;9.50;4.83;;;24.50;7.80;;;;;;5092566;28;20497;-75
2023/10/11 09:30:20;;;;;;;11.97;5.13;;;24.70;7.90;;;;;;5091803;28;20445;-74
2023/10/11 09:32:49;;;;;;;13.87;4.63;;;25.10;7.10;;;;;;5092868;28;20442;-75
2023/10/11 09:35:23;;;;;;;13.20;5.20;;;24.70;1.00;;;;;;5091351;28;20477;-75
2023/10/11 09:37:52;;;;;;;15.57;4.97;;;24.90;1.00;;;;;;5091053;28;20445;-75
2023/10/11 09:40:25;;;;;;;15.60;6.30;;;24.70;1.00;;;;;;5091638;28;20918;-75
2023/10/11 09:42:56;;;;;;;11.40;4.53;;;24.90;1.00;;;;;;5092089;28;20473;-77
2023/10/11 09:45:28;;;;;;;9.07;3.70;;;24.90;1.00;;;;;;5092380;28;20449;-76
2023/10/11 09:47:56;;;;;;;12.50;4.53;;;25.00;1.00;;;;;;5093910;28;20452;-75
2023/10/11 09:50:24;;;;;;;12.70;4.80;;;25.30;1.10;;;;;;5092744;28;20449;-75
2023/10/11 09:52:53;;;;;;;24.23;5.33;;;25.40;1.00;;;;;;5093637;28;20528;-76
2023/10/11 09:55:31;;;;;;;13.20;5.60;;;25.20;1.00;;;;;;5092712;28;20445;-75
2023/10/11 09:58:05;;;;;;;9.17;4.60;;;25.40;1.00;;;;;;5076372;28;20456;-76
2023/10/11 10:00:41;;;;;;;15.63;6.40;;;25.30;1.00;;;;;;5077626;28;20544;-75
2023/10/11 10:03:13;;;;;;;13.30;4.53;;;25.10;1.00;;;;;;5077054;28;20884;-74
2023/10/11 10:06:18;;;;;;;15.17;5.30;;;25.30;1.00;;;;;;5075648;28;20451;-74
2023/10/11 10:08:50;;;;;;;17.73;5.00;;;25.20;1.00;;;;;;5083688;28;20850;-74
2023/10/11 10:11:19;;;;;;;10.67;4.87;;;25.30;1.00;;;;;;5096406;28;20483;-75
2023/10/11 10:14:25;;;;;;;9.83;4.27;;;25.00;1.00;;;;;;5095859;28;20449;-76
2023/10/11 10:17:13;;;;;;;14.00;5.77;;;25.00;1.00;;;;;;5095832;28;21003;-76
2023/10/11 10:19:42;;;;;;;13.00;4.80;;;25.40;1.00;;;;;;5095720;28;20453;-75
2023/10/11 10:22:14;;;;;;;11.70;4.90;;;25.70;1.00;;;;;;5095803;28;20512;-75
2023/10/11 10:24:43;;;;;;;9.57;5.27;;;26.10;1.00;;;;;;5095479;28;20452;-76
2023/10/11 10:27:38;;;;;;;12.83;4.93;;;26.50;1.00;;;;;;5095466;28;20456;-76
2023/10/11 10:30:10;;;;;;;10.53;4.37;;;26.90;1.00;;;;;;5087673;28;20503;-74
2023/10/11 10:33:13;;;;;;;15.60;4.90;;;26.50;1.00;;;;;;5095954;28;20441;-75
2023/10/11 10:35:40;;;;;;;13.40;5.20;;;26.50;1.00;;;;;;5072809;28;20540;-75
2023/10/11 10:38:09;;;;;;;17.17;5.00;;;26.90;1.00;;;;;;5075646;28;20441;-74
2023/10/11 10:40:42;;;;;;;18.33;5.80;;;27.00;1.00;;;;;;5075383;28;20452;-75
2023/10/11 10:43:27;;;;;;;10.27;4.27;;;26.60;1.00;;;;;;5075442;28;20681;-75
2023/10/11 10:45:59;;;;;;;11.77;5.23;;;26.30;1.00;;;;;;5075828;28;20522;-75
2023/10/11 10:48:31;;;;;;;13.60;5.27;;;26.60;1.00;;;;;;5075321;28;20449;-74
2023/10/11 10:51:01;;;;;;;11.67;4.60;;;26.20;1.00;;;;;;5075018;28;20484;-75
2023/10/11 10:53:38;;;;;;;12.17;4.93;;;25.80;1.00;;;;;;5075423;28;20533;-75
2023/10/11 10:56:04;;;;;;;20.20;5.70;;;25.90;1.00;;;;;;5082225;28;20540;-76
2023/10/11 10:58:31;;;;;;;13.17;4.77;;;25.80;1.00;;;;;;5095857;28;20445;-75
2023/10/11 11:00:59;;;;;;;8.87;4.53;;;25.50;1.00;;;;;;5095657;28;20544;-74
2023/10/11 11:03:31;;;;;;;10.10;4.10;;;25.30;1.00;;;;;;5095207;28;20899;-74
2023/10/11 11:06:00;;;;;;;11.00;4.97;;;25.50;1.00;;;;;;5095662;28;20480;-74
2023/10/11 11:08:27;;;;;;;12.90;4.97;;;25.60;1.00;;;;;;5094339;28;20477;-74
2023/10/11 11:11:25;;;;;;;16.60;5.30;;;25.30;1.00;;;;;;5094676;28;20449;-73
2023/10/11 11:13:52;;;;;;;11.93;5.50;;;25.30;1.00;;;;;;5094503;28;20866;-72
2023/10/11 11:16:21;;;;;;;17.57;5.30;;;25.40;1.00;;;;;;5094748;28;20446;-73
2023/10/11 11:18:48;;;;;;;15.20;5.60;;;25.30;1.00;;;;;;5094518;28;20981;-72
2023/10/11 11:21:22;;;;;;;12.30;6.00;;;25.70;1.00;;;;;;5095086;28;20449;-72
2023/10/11 11:23:49;;;;;;;16.47;4.93;;;25.60;1.00;;;;;;5094988;28;20480;-72
2023/10/11 11:26:16;;;;;;;12.30;5.30;;;25.60;1.00;;;;;;5095468;28;20453;-73
2023/10/11 11:28:44;;;;;;;15.33;5.37;;;25.30;1.00;;;;;;5095080;28;20493;-72
2023/10/11 11:31:13;;;;;;;18.30;5.07;;;25.50;1.00;;;;;;5094724;28;20465;-72
2023/10/11 11:33:47;;;;;;;16.03;5.70;;;25.50;1.00;;;;;;5093607;28;20457;-72
2023/10/11 11:36:30;;;;;;;14.43;5.13;;;25.60;1.00;;;;;;5094102;28;20459;-73
2023/10/11 11:38:56;;;;;;;15.53;4.80;;;25.60;1.00;;;;;;5094551;28;20446;-72
2023/10/11 11:41:23;;;;;;;15.13;4.77;;;25.50;1.00;;;;;;5094272;28;20626;-72
2023/10/11 11:43:49;;;;;;;10.73;5.43;;;25.60;1.00;;;;;;5094204;28;20450;-73
2023/10/11 11:46:17;;;;;;;9.73;4.30;;;25.80;1.00;;;;;;5094846;28;20507;-73
2023/10/11 11:48:43;;;;;;;12.33;5.27;;;26.30;1.00;;;;;;5094564;28;20226;-72
2023/10/11 11:51:14;;;;;;;12.80;5.60;;;26.40;1.00;;;;;;5094268;28;20453;-72
2023/10/11 11:53:43;;;;;;;11.70;5.00;;;26.50;1.00;;;;;;5094191;28;20925;-72
2023/10/11 11:56:12;;;;;;;14.50;5.10;;;26.50;1.00;;;;;;5093978;28;20453;-73
2023/10/11 11:58:45;;;;;;;18.07;5.53;;;26.50;1.00;;;;;;5094488;28;20449;-73
2023/10/11 12:01:16;;;;;;;16.07;5.40;;;26.40;1.00;;;;;;5094347;28;20456;-72
2023/10/11 12:03:52;;;;;;;11.70;5.30;;;26.60;1.00;;;;;;5094561;28;20449;-72
2023/10/11 12:06:26;;;;;;;22.60;5.80;;;26.60;1.00;;;;;;5094598;28;20448;-72
2023/10/11 12:08:59;;;;;;;12.00;5.00;;;26.50;1.00;;;;;;5094467;28;20502;-70
2023/10/11 12:11:31;;;;;;;16.83;4.77;;;26.60;1.00;;;;;;5094079;28;20814;-71
2023/10/11 12:14:03;;;;;;;16.17;5.53;;;26.60;1.00;;;;;;5094408;28;20454;-71
2023/10/11 12:16:31;;;;;;;14.93;4.90;;;26.70;1.00;;;;;;5094355;28;20809;-70
2023/10/11 12:18:59;;;;;;;12.47;5.07;;;26.70;1.00;;;;;;5093994;28;20456;-72
2023/10/11 12:21:27;;;;;;;15.27;5.50;;;27.00;1.00;;;;;;5093560;28;20450;-72
2023/10/11 12:23:54;;;;;;;18.30;5.03;;;27.40;1.00;;;;;;5094177;28;20457;-71
2023/10/11 12:26:25;;;;;;;15.90;4.77;;;27.00;1.00;;;;;;5093424;28;20449;-73
2023/10/11 12:28:52;;;;;;;16.90;5.80;;;27.30;1.00;;;;;;5093248;28;20468;-73
2023/10/11 12:31:19;;;;;;;15.80;5.27;;;27.60;1.00;;;;;;5093387;28;20445;-73
2023/10/11 12:33:46;;;;;;;18.30;4.53;;;27.60;1.00;;;;;;5092905;28;20605;-73
2023/10/11 12:36:15;;;;;;;15.33;4.67;;;27.30;1.00;;;;;;5093081;28;20460;-72
2023/10/11 12:38:41;;;;;;;15.10;5.27;;;27.50;1.00;;;;;;5093980;28;20452;-73
2023/10/11 12:41:14;;;;;;;13.00;4.87;;;27.50;1.00;;;;;;5094081;28;20548;-72
2023/10/11 12:43:45;;;;;;;23.93;5.93;;;27.50;1.00;;;;;;5093444;28;20477;-72
2023/10/11 12:46:12;;;;;;;15.20;5.90;;;27.60;1.00;;;;;;5093485;28;21154;-73
2023/10/11 12:48:38;;;;;;;10.57;4.90;;;27.80;1.00;;;;;;5093653;28;20544;-73
2023/10/11 12:51:06;;;;;;;19.40;6.33;;;28.10;1.00;;;;;;5093402;28;20479;-73
2023/10/11 12:53:33;;;;;;;17.30;5.97;;;28.30;1.00;;;;;;5093407;28;20452;-72
2023/10/11 12:56:00;;;;;;;13.00;4.93;;;27.60;1.00;;;;;;5093603;28;20813;-73
2023/10/11 12:58:38;;;;;;;19.20;6.47;;;27.40;1.00;;;;;;5093489;28;20537;-72
2023/10/11 13:01:11;;;;;;;13.00;4.80;;;27.00;1.00;;;;;;5093688;28;20503;-71
2023/10/11 13:03:38;;;;;;;25.70;5.83;;;26.60;1.00;;;;;;5093451;28;21006;-71
2023/10/11 13:06:09;;;;;;;18.17;4.87;;;26.30;1.00;;;;;;5093242;28;20870;-72
2023/10/11 13:08:37;;;;;;;16.63;4.60;;;26.10;1.00;;;;;;5093499;28;20453;-72
2023/10/11 13:11:10;;;;;;;12.50;5.73;;;26.00;1.00;;;;;;5093296;28;20460;-72
2023/10/11 13:13:37;;;;;;;12.30;5.10;;;26.00;1.00;;;;;;5093121;28;20442;-72
2023/10/11 13:16:06;;;;;;;13.70;5.10;;;26.00;1.00;;;;;;5093470;28;20449;-72
2023/10/11 13:18:37;;;;;;;18.23;6.13;;;26.00;1.00;;;;;;5093510;28;20538;-72
2023/10/11 13:21:10;;;;;;;13.23;5.67;;;25.80;1.00;;;;;;5093297;28;21020;-72
2023/10/11 13:23:39;;;;;;;17.90;5.90;;;25.80;1.00;;;;;;5092687;28;20476;-72
2023/10/11 13:26:07;;;;;;;14.07;4.10;;;25.80;1.00;;;;;;5093182;28;20461;-72
2023/10/11 13:28:34;;;;;;;15.40;5.73;;;25.70;1.00;;;;;;5092945;28;20806;-73
2023/10/11 13:31:02;;;;;;;9.23;4.27;;;25.70;1.00;;;;;;5092400;28;20454;-73
2023/10/11 13:33:31;;;;;;;17.40;5.10;;;25.60;1.00;;;;;;5092746;28;20449;-73
2023/10/11 13:36:03;;;;;;;22.77;5.13;;;25.80;1.00;;;;;;5092887;28;20481;-73
2023/10/11 13:38:31;;;;;;;23.23;6.68;;;25.70;1.00;;;;;;5090588;28;20790;-72
2023/10/11 13:41:00;;;;;;;16.55;5.75;;;25.50;1.00;;;;;;5090206;28;20448;-72
2023/10/11 13:43:27;;;;;;;17.00;5.90;;;25.30;1.00;;;;;;5090363;28;20763;-74
2023/10/11 13:46:01;;;;;;;16.83;4.80;;;25.20;1.00;;;;;;5089835;28;20450;-73
2023/10/11 13:48:36;;;;;;;16.33;4.70;;;25.10;1.00;;;;;;5090548;28;20515;-72
2023/10/11 13:51:06;;;;;;;17.43;6.30;;;25.00;1.00;;;;;;5091519;28;20464;-72
2023/10/11 13:53:40;;;;;;;14.37;5.10;;;25.00;1.00;;;;;;5090215;28;20960;-72
2023/10/11 13:56:16;;;;;;;16.50;5.00;;;25.10;1.00;;;;;;5091160;28;20958;-72
2023/10/11 13:58:45;;;;;;;16.23;5.67;;;25.10;1.00;;;;;;5092174;28;20500;-71
2023/10/11 14:04:14;;;;;;;15.40;5.33;;;25.00;1.00;;;;;;5130357;27;20517;-70
2023/10/11 14:06:59;;;;;;;16.00;5.50;;;25.00;1.00;;;;;;5123925;28;20443;-70
2023/10/11 14:09:30;;;;;;;11.13;3.80;;;25.10;1.00;;;;;;5110136;28;20441;-71
2023/10/11 14:11:57;;;;;;;12.23;4.80;;;25.10;1.00;;;;;;5122541;28;20443;-70
2023/10/11 14:14:24;;;;;;;14.45;5.10;;;25.00;1.00;;;;;;5126724;27;20519;-71
2023/10/11 14:16:52;;;;;;;13.30;5.03;;;25.10;1.00;;;;;;5125404;28;20443;-71
2023/10/11 14:19:24;;;;;;;16.40;5.77;;;25.20;1.00;;;;;;5111612;27;20452;-73
2023/10/11 14:21:51;;;;;;;15.83;5.20;;;25.20;1.00;;;;;;5109844;28;20461;-72
2023/10/11 14:24:19;;;;;;;15.77;4.83;;;25.30;1.00;;;;;;5109714;28;20454;-72
2023/10/11 14:26:46;;;;;;;15.57;5.03;;;25.40;1.00;;;;;;5109562;28;20444;-72
2023/10/11 14:29:13;;;;;;;13.63;3.90;;;25.40;1.00;;;;;;5109089;28;20474;-72
2023/10/11 14:31:42;;;;;;;24.13;5.60;;;25.10;1.00;;;;;;5109256;28;20472;-72
2023/10/11 14:34:09;;;;;;;12.07;4.40;;;25.00;1.00;;;;;;5112355;28;20448;-72
2023/10/11 14:36:40;;;;;;;15.73;4.50;;;25.00;1.00;;;;;;5124066;28;20722;-72
2023/10/11 14:39:17;;;;;;;16.37;5.13;;;24.90;1.00;;;;;;5117264;28;20436;-72
2023/10/11 14:41:45;;;;;;;18.23;5.07;;;24.90;1.00;;;;;;5114233;28;20448;-72
2023/10/11 14:44:13;;;;;;;11.43;5.20;;;24.70;1.00;;;;;;5115046;28;20464;-72
2023/10/11 14:46:40;;;;;;;16.00;5.80;;;24.60;1.00;;;;;;5115417;28;20463;-72
2023/10/11 14:49:10;;;;;;;16.80;4.93;;;24.60;1.00;;;;;;5123508;28;20867;-73
2023/10/11 14:51:39;;;;;;;16.63;4.80;;;24.40;1.00;;;;;;5109409;28;20449;-74
2023/10/11 14:54:06;;;;;;;12.10;4.37;;;24.40;1.00;;;;;;5109147;28;20870;-73
2023/10/11 14:56:35;;;;;;;13.53;4.40;;;24.40;1.00;;;;;;5109239;28;21028;-74
2023/10/11 14:59:03;;;;;;;17.10;5.30;;;24.50;1.00;;;;;;5109173;28;20445;-74
2023/10/11 15:01:33;;;;;;;21.77;5.07;;;24.60;1.00;;;;;;5109184;28;20517;-73
2023/10/11 15:04:09;;;;;;;17.93;4.40;;;24.60;1.00;;;;;;5108442;28;20506;-73
2023/10/11 15:06:38;;;;;;;15.70;5.30;;;24.60;1.00;;;;;;5108435;28;20749;-74
2023/10/11 15:09:08;;;;;;;12.60;4.80;;;24.50;1.00;;;;;;5108627;28;20868;-74
2023/10/11 15:11:36;;;;;;;12.43;4.87;;;24.60;1.00;;;;;;5119602;28;20444;-73
2023/10/11 15:14:06;;;;;;;12.10;4.87;;;24.70;1.00;;;;;;5122926;28;20440;-73
2023/10/11 15:16:34;;;;;;;15.77;4.30;;;24.70;1.00;;;;;;5115736;28;20525;-74
2023/10/11 15:19:02;;;;;;;12.60;3.80;;;24.60;1.00;;;;;;5112616;28;20445;-71
2023/10/11 15:21:29;;;;;;;14.30;4.67;;;24.50;1.00;;;;;;5094996;28;20945;-73
2023/10/11 15:23:58;;;;;;;17.50;4.40;;;24.50;1.00;;;;;;5094819;28;20487;-73
2023/10/11 15:26:25;;;;;;;11.43;4.63;;;24.50;1.00;;;;;;5094999;28;20481;-73
2023/10/11 15:28:53;;;;;;;15.47;6.20;;;24.40;1.00;;;;;;5094376;28;20445;-73
2023/10/11 15:31:20;;;;;;;11.30;3.93;;;24.30;1.00;;;;;;5094825;28;20445;-73
2023/10/11 15:33:47;;;;;;;12.60;4.33;;;24.10;1.00;;;;;;5094299;28;20445;-73
2023/10/11 15:36:14;;;;;;;13.13;4.30;;;24.00;1.00;;;;;;5094416;28;20532;-73
2023/10/11 15:38:44;;;;;;;11.20;3.83;;;23.80;1.00;;;;;;5094643;28;20936;-73
2023/10/11 15:41:16;;;;;;;12.80;4.30;;;23.60;1.00;;;;;;5094549;28;20845;-73
2023/10/11 15:43:43;;;;;;;10.60;3.97;;;23.50;1.00;;;;;;5094447;28;20567;-73
2023/10/11 15:46:12;;;;;;;11.97;4.30;;;23.30;1.00;;;;;;5094867;28;20449;-73
2023/10/11 15:48:39;;;;;;;11.80;4.03;;;23.20;1.00;;;;;;5094198;28;20514;-73
2023/10/11 15:51:09;;;;;;;13.73;4.13;;;23.10;1.00;;;;;;5094355;28;20451;-73
2023/10/11 15:53:36;;;;;;;12.20;4.83;;;23.00;1.00;;;;;;5094374;28;20445;-73
2023/10/11 15:56:04;;;;;;;10.53;4.40;;;22.90;1.00;;;;;;5094393;28;20457;-73
2023/10/11 15:58:33;;;;;;;17.63;3.60;;;22.90;1.00;;;;;;5094355;28;20449;-73
2023/10/11 16:01:04;;;;;;;11.40;3.90;;;22.70;1.00;;;;;;5094556;28;20455;-73
2023/10/11 16:03:34;;;;;;;15.17;4.93;;;22.60;1.00;;;;;;5093250;28;20569;-73
2023/10/11 16:06:01;;;;;;;14.93;5.27;;;22.50;1.00;;;;;;5093525;28;20453;-73
2023/10/11 16:08:29;;;;;;;13.27;4.27;;;22.50;1.00;;;;;;5107869;28;20453;-73
2023/10/11 16:11:04;;;;;;;12.53;3.90;;;22.40;1.00;;;;;;5099563;28;20506;-73
2023/10/11 16:13:33;;;;;;;12.73;4.70;;;22.30;1.00;;;;;;5099359;28;20528;-73
2023/10/11 16:16:01;;;;;;;13.10;4.50;;;22.10;1.00;;;;;;5092898;28;20471;-73
2023/10/11 16:18:28;;;;;;;11.63;3.27;;;22.10;1.00;;;;;;5094431;28;20540;-73
2023/10/11 16:20:55;;;;;;;15.50;3.67;;;22.00;1.00;;;;;;5102527;28;20635;-73
2023/10/11 16:23:23;;;;;;;8.27;3.17;;;21.90;1.00;;;;;;5093109;28;20473;-73
2023/10/11 16:25:50;;;;;;;16.03;3.70;;;21.80;1.00;;;;;;5106347;28;20451;-73
2023/10/11 16:28:17;;;;;;;11.70;3.20;;;21.80;1.00;;;;;;5109893;28;20680;-73
2023/10/11 16:30:47;;;;;;;12.03;3.43;;;21.70;1.00;;;;;;5101054;28;20445;-73
2023/10/11 16:33:14;;;;;;;10.33;3.80;;;21.70;1.00;;;;;;5102825;28;20472;-73
2023/10/11 16:35:41;;;;;;;12.67;4.67;;;21.70;1.00;;;;;;5110413;28;20448;-73
2023/10/11 16:38:08;;;;;;;11.90;4.18;;;21.70;1.00;;;;;;5109269;28;20526;-73
2023/10/11 16:40:34;;;;;;;14.63;5.50;;;21.60;1.00;;;;;;5112844;28;20191;-73
2023/10/11 16:43:02;;;;;;;10.20;3.90;;;21.40;1.00;;;;;;5097660;28;20472;-73
2023/10/11 16:45:28;;;;;;;13.43;3.37;;;21.30;1.00;;;;;;5094734;28;20990;-73
2023/10/11 16:47:57;;;;;;;8.03;3.27;;;21.30;1.00;;;;;;5094687;28;20453;-73
2023/10/11 16:50:25;;;;;;;14.20;4.03;;;21.20;1.00;;;;;;5073914;28;20450;-73
2023/10/11 16:52:53;;;;;;;10.73;3.73;;;21.20;1.00;;;;;;5073510;28;20509;-73
2023/10/11 16:55:20;;;;;;;10.80;3.83;;;21.10;1.00;;;;;;5073849;28;20584;-73
2023/10/11 16:57:47;;;;;;;11.20;3.37;;;21.10;1.00;;;;;;5083849;28;20800;-73
2023/10/11 17:00:21;;;;;;;11.00;3.73;;;21.00;1.00;;;;;;5103582;28;20535;-72
2023/10/11 17:02:48;;;;;;;9.93;3.80;;;21.10;1.00;;;;;;5104044;28;20517;-72
2023/10/11 17:05:18;;;;;;;10.47;4.13;;;21.10;1.00;;;;;;5108089;28;20499;-72
2023/10/11 17:07:46;;;;;;;13.90;4.87;;;21.10;1.00;;;;;;5102953;28;20460;-72
2023/10/11 17:10:15;;;;;;;13.63;4.73;;;21.10;1.00;;;;;;5091686;28;21043;-72
2023/10/11 17:12:42;;;;;;;16.80;4.97;;;21.00;1.00;;;;;;5097967;28;20476;-72
2023/10/11 17:15:11;;;;;;;11.07;4.47;;;21.00;1.00;;;;;;5112406;28;20453;-72
2023/10/11 17:17:38;;;;;;;10.47;3.80;;;21.00;1.00;;;;;;5113020;28;21061;-72
2023/10/11 17:20:14;;;;;;;11.67;3.70;;;20.80;1.00;;;;;;5113018;28;20535;-72
2023/10/11 17:22:45;;;;;;;11.10;3.50;;;20.70;1.00;;;;;;5113086;28;20480;-72
2023/10/11 17:25:13;;;;;;;18.03;4.47;;;20.60;1.00;;;;;;5103971;28;20854;-72
2023/10/11 17:27:40;;;;;;;10.20;3.77;;;20.50;1.00;;;;;;5098143;28;20445;-72
2023/10/11 17:30:11;;;;;;;10.57;4.43;;;20.50;1.00;;;;;;5103068;28;20898;-71
2023/10/11 17:32:40;;;;;;;10.23;3.33;;;20.40;1.00;;;;;;5092784;28;20499;-72
2023/10/11 17:35:08;;;;;;;19.60;4.57;;;20.30;1.00;;;;;;5092727;28;20448;-72
2023/10/11 17:37:37;;;;;;;11.67;4.47;;;20.30;1.00;;;;;;5095938;28;20472;-72
2023/10/11 17:40:09;;;;;;;11.00;4.70;;;20.20;1.00;;;;;;5110422;28;20455;-72
2023/10/11 17:42:36;;;;;;;10.97;4.67;;;20.30;1.00;;;;;;5113092;28;20448;-72
2023/10/11 17:45:04;;;;;;;12.17;4.60;;;20.20;1.00;;;;;;5100857;28;20468;-72
2023/10/11 17:47:31;;;;;;;14.27;4.80;;;20.30;1.00;;;;;;5091442;28;20988;-71
2023/10/11 17:49:58;;;;;;;8.90;4.30;;;20.20;1.00;;;;;;5110986;28;20531;-72
2023/10/11 17:52:27;;;;;;;10.00;4.07;;;20.20;1.00;;;;;;5109813;28;20467;-72
2023/10/11 17:54:54;;;;;;;17.10;5.00;;;20.10;1.00;;;;;;5112487;28;20436;-72
2023/10/11 17:57:23;;;;;;;10.80;4.37;;;20.00;1.00;;;;;;5112428;28;20497;-72
2023/10/11 17:59:51;;;;;;;12.00;4.50;;;19.90;1.00;;;;;;5112320;28;20444;-72
2023/10/11 18:02:23;;;;;;;10.10;4.33;;;19.90;1.00;;;;;;5112443;28;20452;-72
2023/10/11 18:04:49;;;;;;;13.27;4.20;;;19.80;1.00;;;;;;5112328;28;20468;-71
2023/10/11 18:07:16;;;;;;;13.77;4.70;;;19.80;1.00;;;;;;5112516;28;20843;-72
2023/10/11 18:09:44;;;;;;;13.43;3.97;;;19.80;1.00;;;;;;5112910;28;20488;-72
2023/10/11 18:12:11;;;;;;;14.97;4.83;;;19.80;1.00;;;;;;5112043;28;20450;-72
2023/10/11 18:14:39;;;;;;;13.60;4.40;;;19.70;1.50;;;;;;5112079;28;20539;-72
2023/10/11 18:17:07;;;;;;;12.67;5.97;;;19.90;1.00;;;;;;5111752;28;20505;-72
2023/10/11 18:19:34;;;;;;;11.17;4.87;;;19.90;1.90;;;;;;5091813;28;20456;-72